createdAt,value
2017-04-17T00:00:18.934Z,87.45
2017-04-17T00:01:18.894Z,87.49
2017-04-17T00:02:19.003Z,87.54
2017-04-17T00:03:18.867Z,85.65
2017-04-17T00:04:18.859Z,84.89
2017-04-17T00:05:18.839Z,84.51
2017-04-17T00:06:18.957Z,84.7
2017-04-17T00:07:18.813Z,84.99
2017-04-17T00:08:18.798Z,84.23
2017-04-17T00:09:18.917Z,82.33
2017-04-17T00:10:18.773Z,81.76
2017-04-17T00:11:18.757Z,81.67
2017-04-17T00:12:18.836Z,82.14
2017-04-17T00:13:18.732Z,81.38
2017-04-17T00:14:18.719Z,80.72
2017-04-17T00:15:18.805Z,79.87
2017-04-17T00:16:18.689Z,79.96
2017-04-17T00:17:18.709Z,78.92
2017-04-17T00:18:18.797Z,77.97
2017-04-17T00:19:18.654Z,77.59
2017-04-17T00:20:18.638Z,76.55
2017-04-17T00:21:18.620Z,76.74
2017-04-17T00:22:19.114Z,76.36
2017-04-17T00:23:18.593Z,75.42
2017-04-17T00:24:18.580Z,74.95
2017-04-17T00:25:19.039Z,76.55
2017-04-17T00:26:18.554Z,76.93
2017-04-17T00:27:18.539Z,74.95
2017-04-17T00:28:19.179Z,74.95
2017-04-17T00:29:18.513Z,74.56
2017-04-17T00:30:18.500Z,72.96
2017-04-17T00:31:19.083Z,71.15
2017-04-17T00:32:18.157Z,70.78
2017-04-17T00:33:18.460Z,70.49
2017-04-17T00:34:18.933Z,70.2
2017-04-17T00:35:18.429Z,70.3
2017-04-17T00:36:18.911Z,69.35
2017-04-17T00:37:18.405Z,68.98
2017-04-17T00:38:18.465Z,68.12
2017-04-17T00:39:18.377Z,68.98
2017-04-17T00:40:18.043Z,68.88
2017-04-17T00:41:18.350Z,68.02
2017-04-17T00:42:18.337Z,67.55
2017-04-17T00:43:18.320Z,68.88
2017-04-17T00:44:17.990Z,68.21
2017-04-17T00:45:18.297Z,69.17
2017-04-17T00:46:18.279Z,70.68
2017-04-17T00:47:17.948Z,69.64
2017-04-17T00:48:18.251Z,68.69
2017-04-17T00:49:18.236Z,66.89
2017-04-17T00:50:18.224Z,66.22
2017-04-17T00:51:18.208Z,67.08
2017-04-17T00:52:18.197Z,67.08
2017-04-17T00:53:18.183Z,66.41
2017-04-17T00:54:18.167Z,65.09
2017-04-17T00:55:18.622Z,65.47
2017-04-17T00:56:18.140Z,66.51
2017-04-17T00:57:18.126Z,66.32
2017-04-17T00:58:18.517Z,65.19
2017-04-17T00:59:18.099Z,64.42
2017-04-17T01:00:18.533Z,65.75
2017-04-17T01:01:17.753Z,67.27
2017-04-17T01:02:18.054Z,67.14
2017-04-17T01:03:18.283Z,66.13
2017-04-17T01:04:18.028Z,65.09
2017-04-17T01:05:18.013Z,66.57
2017-04-17T01:06:18.018Z,65.84
2017-04-17T01:07:17.986Z,64.11
2017-04-17T01:08:17.971Z,62.69
2017-04-17T01:09:18.508Z,61.18
2017-04-17T01:10:17.942Z,60.13
2017-04-17T01:11:17.928Z,58.33
2017-04-17T01:12:18.518Z,57.76
2017-04-17T01:13:17.899Z,56.72
2017-04-17T01:14:17.886Z,55.96
2017-04-17T01:15:17.990Z,57.76
2017-04-17T01:16:17.861Z,57.57
2017-04-17T01:17:17.530Z,56.34
2017-04-17T01:18:17.833Z,55.87
2017-04-17T01:19:17.816Z,56.15
2017-04-17T01:20:17.801Z,53.97
2017-04-17T01:21:17.785Z,53.41
2017-04-17T01:22:17.454Z,51.14
2017-04-17T01:23:17.758Z,49.81
2017-04-17T01:24:17.427Z,48.01
2017-04-17T01:25:17.411Z,47.72
2017-04-17T01:26:17.714Z,48.68
2017-04-17T01:27:17.387Z,48.49
2017-04-17T01:28:17.371Z,47.63
2017-04-17T01:29:17.670Z,46.21
2017-04-17T01:30:17.656Z,45.26
2017-04-17T01:31:17.643Z,43.94
2017-04-17T01:32:17.313Z,43.56
2017-04-17T01:33:17.653Z,42.99
2017-04-17T01:34:17.604Z,43.75
2017-04-17T01:35:17.582Z,44.22
2017-04-17T01:36:17.566Z,43.46
2017-04-17T01:37:17.550Z,42.14
2017-04-17T01:38:17.544Z,41
2017-04-17T01:39:17.208Z,39.87
2017-04-17T01:40:17.512Z,39.29
2017-04-17T01:41:17.180Z,39.39
2017-04-17T01:42:17.481Z,39.87
2017-04-17T01:43:17.466Z,41.76
2017-04-17T01:44:17.458Z,43.27
2017-04-17T01:45:17.439Z,43.75
2017-04-17T01:46:17.422Z,45.17
2017-04-17T01:47:17.407Z,46.12
2017-04-17T01:48:17.396Z,45.64
2017-04-17T01:49:17.382Z,44.7
2017-04-17T01:50:17.367Z,43.37
2017-04-17T01:51:17.033Z,43.63
2017-04-17T01:52:17.332Z,43.54
2017-04-17T01:53:17.004Z,43.54
2017-04-17T01:54:17.303Z,45.53
2017-04-17T01:55:17.292Z,45.62
2017-04-17T01:56:16.961Z,45.53
2017-04-17T01:57:17.260Z,45.34
2017-04-17T01:58:17.248Z,44.77
2017-04-17T01:59:17.228Z,44.96
2017-04-17T02:00:17.212Z,45.34
2017-04-17T02:01:16.884Z,45.43
2017-04-17T02:02:17.186Z,45.72
2017-04-17T02:03:17.167Z,46.19
2017-04-17T02:04:17.154Z,46.09
2017-04-17T02:05:17.139Z,46.56
2017-04-17T02:06:17.126Z,47.51
2017-04-17T02:07:17.111Z,46.94
2017-04-17T02:08:17.097Z,46.28
2017-04-17T02:09:17.083Z,45.9
2017-04-17T02:10:17.065Z,45.53
2017-04-17T02:11:17.050Z,45.34
2017-04-17T02:12:17.042Z,44.67
2017-04-17T02:13:17.024Z,43.82
2017-04-17T02:14:17.005Z,43.91
2017-04-17T02:15:16.991Z,43.82
2017-04-17T02:16:16.977Z,43.82
2017-04-17T02:17:16.962Z,44.77
2017-04-17T02:18:16.950Z,44.96
2017-04-17T02:19:16.934Z,44.29
2017-04-17T02:20:16.920Z,44.48
2017-04-17T02:21:16.900Z,44.29
2017-04-17T02:22:16.886Z,44.29
2017-04-17T02:23:16.558Z,43.07
2017-04-17T02:24:16.857Z,42.5
2017-04-17T02:25:16.845Z,41.74
2017-04-17T02:26:16.830Z,42.11
2017-04-17T02:27:16.816Z,41.55
2017-04-17T02:28:16.801Z,41.17
2017-04-17T02:29:16.474Z,40.79
2017-04-17T02:30:16.771Z,40.6
2017-04-17T02:31:16.755Z,40.13
2017-04-17T02:32:16.738Z,40.22
2017-04-17T02:33:16.727Z,39.65
2017-04-17T02:34:16.709Z,39.65
2017-04-17T02:35:16.700Z,39.94
2017-04-17T02:36:16.838Z,40.03
2017-04-17T02:37:16.665Z,39.75
2017-04-17T02:38:16.650Z,39.56
2017-04-17T02:39:16.325Z,40.34
2017-04-17T02:40:16.621Z,40.51
2017-04-17T02:41:16.291Z,40.13
2017-04-17T02:42:16.278Z,39.29
2017-04-17T02:43:16.580Z,38.62
2017-04-17T02:44:16.564Z,37.97
2017-04-17T02:45:16.545Z,38.26
2017-04-17T02:46:16.219Z,38.24
2017-04-17T02:47:16.519Z,38.05
2017-04-17T02:48:16.504Z,38.64
2017-04-17T02:49:16.488Z,38.62
2017-04-17T02:50:16.161Z,38.35
2017-04-17T02:51:16.459Z,38.16
2017-04-17T02:52:16.446Z,38.16
2017-04-17T02:53:16.436Z,38.05
2017-04-17T02:54:16.613Z,38.24
2017-04-17T02:55:16.091Z,39.65
2017-04-17T02:56:16.069Z,42.9
2017-04-17T02:57:16.056Z,43.82
2017-04-17T02:58:16.041Z,43.35
2017-04-17T02:59:16.344Z,43.07
2017-04-17T03:00:16.326Z,42.69
2017-04-17T03:01:15.998Z,41.64
2017-04-17T03:02:16.298Z,41.64
2017-04-17T03:03:16.091Z,41.17
2017-04-17T03:04:16.269Z,40.7
2017-04-17T03:05:16.252Z,40.6
2017-04-17T03:06:15.922Z,39.94
2017-04-17T03:07:15.908Z,38.81
2017-04-17T03:08:16.208Z,38.81
2017-04-17T03:09:15.878Z,38.24
2017-04-17T03:10:16.179Z,38.33
2017-04-17T03:11:16.165Z,38.14
2017-04-17T03:12:16.149Z,37.67
2017-04-17T03:13:16.134Z,37.29
2017-04-17T03:14:16.119Z,38.52
2017-04-17T03:15:16.106Z,38.71
2017-04-17T03:16:15.776Z,38.71
2017-04-17T03:17:16.073Z,38.9
2017-04-17T03:18:15.745Z,38.33
2017-04-17T03:19:16.054Z,38.81
2017-04-17T03:20:16.033Z,39.09
2017-04-17T03:21:16.243Z,39.37
2017-04-17T03:22:15.689Z,39.09
2017-04-17T03:23:15.679Z,39.09
2017-04-17T03:24:15.658Z,39.47
2017-04-17T03:25:15.642Z,39.28
2017-04-17T03:26:15.940Z,39.18
2017-04-17T03:27:15.931Z,39
2017-04-17T03:28:15.599Z,39.28
2017-04-17T03:29:15.582Z,39
2017-04-17T03:30:15.940Z,39.47
2017-04-17T03:31:15.868Z,39.56
2017-04-17T03:32:15.545Z,38.71
2017-04-17T03:33:15.841Z,38.43
2017-04-17T03:34:15.825Z,38.62
2017-04-17T03:35:15.492Z,38.52
2017-04-17T03:36:15.791Z,38.33
2017-04-17T03:37:15.779Z,37.38
2017-04-17T03:38:15.767Z,37.1
2017-04-17T03:39:15.433Z,36.63
2017-04-17T03:40:15.734Z,36.15
2017-04-17T03:41:15.716Z,35.58
2017-04-17T03:42:15.392Z,34.83
2017-04-17T03:43:15.375Z,34.64
2017-04-17T03:44:15.360Z,33.98
2017-04-17T03:45:15.659Z,33.79
2017-04-17T03:46:15.330Z,33.31
2017-04-17T03:47:15.665Z,33.31
2017-04-17T03:48:15.614Z,33.6
2017-04-17T03:49:15.284Z,33.22
2017-04-17T03:50:15.581Z,32.56
2017-04-17T03:51:15.568Z,32.09
2017-04-17T03:52:15.555Z,31.9
2017-04-17T03:53:15.540Z,32.28
2017-04-17T03:54:15.525Z,32.18
2017-04-17T03:55:15.507Z,31.23
2017-04-17T03:56:15.493Z,30.38
2017-04-17T03:57:15.484Z,29.43
2017-04-17T03:58:15.465Z,29.53
2017-04-17T03:59:15.135Z,29.43
2017-04-17T04:00:15.433Z,30.1
2017-04-17T04:01:15.418Z,30.19
2017-04-17T04:02:15.430Z,30.38
2017-04-17T04:03:15.390Z,30.47
2017-04-17T04:04:15.374Z,30.1
2017-04-17T04:05:15.363Z,29.34
2017-04-17T04:06:15.030Z,29.72
2017-04-17T04:07:15.328Z,29.81
2017-04-17T04:08:15.314Z,29.43
2017-04-17T04:09:15.300Z,29.15
2017-04-17T04:10:15.283Z,29.34
2017-04-17T04:11:15.269Z,29.43
2017-04-17T04:12:14.938Z,30
2017-04-17T04:13:15.235Z,30.1
2017-04-17T04:14:15.222Z,30.29
2017-04-17T04:15:14.893Z,30.29
2017-04-17T04:16:14.879Z,30.38
2017-04-17T04:17:14.864Z,31.42
2017-04-17T04:18:15.167Z,32.65
2017-04-17T04:19:15.161Z,32.56
2017-04-17T04:20:15.133Z,31.99
2017-04-17T04:21:14.803Z,31.71
2017-04-17T04:22:14.808Z,32.18
2017-04-17T04:23:15.089Z,32.09
2017-04-17T04:24:15.074Z,31.52
2017-04-17T04:25:15.058Z,30.85
2017-04-17T04:26:15.044Z,31.14
2017-04-17T04:27:15.031Z,31.23
2017-04-17T04:28:14.698Z,31.61
2017-04-17T04:29:14.998Z,31.71
2017-04-17T04:30:14.670Z,32.09
2017-04-17T04:31:15.008Z,32.18
2017-04-17T04:32:14.956Z,31.99
2017-04-17T04:33:14.941Z,32.28
2017-04-17T04:34:14.938Z,32.18
2017-04-17T04:35:14.594Z,32.09
2017-04-17T04:36:14.899Z,31.99
2017-04-17T04:37:14.564Z,31.99
2017-04-17T04:38:14.550Z,31.9
2017-04-17T04:39:14.860Z,32.65
2017-04-17T04:40:14.834Z,31.99
2017-04-17T04:41:14.821Z,32.18
2017-04-17T04:42:14.808Z,32.18
2017-04-17T04:43:14.792Z,32.46
2017-04-17T04:44:14.461Z,32.65
2017-04-17T04:45:14.445Z,32.46
2017-04-17T04:46:14.431Z,32.95
2017-04-17T04:47:14.730Z,34.07
2017-04-17T04:48:14.715Z,33.88
2017-04-17T04:49:14.385Z,33.98
2017-04-17T04:50:14.685Z,33.69
2017-04-17T04:51:14.669Z,33.98
2017-04-17T04:52:14.655Z,33.69
2017-04-17T04:53:14.332Z,34.07
2017-04-17T04:54:14.346Z,33.69
2017-04-17T04:55:14.300Z,33.79
2017-04-17T04:56:14.281Z,33.31
2017-04-17T04:57:14.580Z,33.12
2017-04-17T04:58:14.565Z,33.22
2017-04-17T04:59:14.552Z,33.03
2017-04-17T05:00:14.220Z,32.46
2017-04-17T05:01:14.520Z,32.18
2017-04-17T05:02:14.189Z,32.09
2017-04-17T05:03:14.179Z,32.37
2017-04-17T05:04:14.164Z,32.84
2017-04-17T05:05:14.462Z,33.03
2017-04-17T05:06:14.446Z,33.23
2017-04-17T05:07:14.431Z,33.43
2017-04-17T05:08:14.448Z,33.79
2017-04-17T05:09:14.090Z,33.41
2017-04-17T05:10:14.101Z,32.86
2017-04-17T05:11:14.379Z,32.57
2017-04-17T05:12:14.360Z,32.57
2017-04-17T05:13:14.344Z,32.95
2017-04-17T05:14:14.015Z,33.43
2017-04-17T05:15:14.313Z,34.45
2017-04-17T05:16:13.983Z,35.32
2017-04-17T05:17:13.971Z,37.02
2017-04-17T05:18:13.953Z,37.21
2017-04-17T05:19:14.254Z,38.33
2017-04-17T05:20:14.240Z,38.81
2017-04-17T05:21:14.223Z,39.09
2017-04-17T05:22:14.207Z,38.81
2017-04-17T05:23:14.193Z,39.28
2017-04-17T05:24:14.177Z,39.65
2017-04-17T05:25:14.165Z,39.75
2017-04-17T05:26:14.148Z,40.03
2017-04-17T05:27:14.136Z,39.65
2017-04-17T05:28:14.120Z,39.28
2017-04-17T05:29:14.106Z,39.75
2017-04-17T05:30:13.774Z,39.94
2017-04-17T05:31:13.760Z,39.84
2017-04-17T05:32:14.064Z,39.84
2017-04-17T05:33:14.047Z,40.79
2017-04-17T05:34:14.032Z,41.08
2017-04-17T05:35:14.015Z,41.27
2017-04-17T05:36:13.684Z,40.98
2017-04-17T05:37:13.986Z,40.79
2017-04-17T05:38:13.656Z,40.6
2017-04-17T05:39:13.957Z,40.13
2017-04-17T05:40:13.941Z,40.7
2017-04-17T05:41:13.925Z,40.22
2017-04-17T05:42:13.595Z,40.51
2017-04-17T05:43:13.900Z,40.6
2017-04-17T05:44:13.879Z,39.65
2017-04-17T05:45:13.866Z,39.75
2017-04-17T05:46:13.850Z,39.84
2017-04-17T05:47:13.834Z,40.98
2017-04-17T05:48:13.822Z,41.74
2017-04-17T05:49:13.914Z,41.46
2017-04-17T05:50:13.474Z,40.89
2017-04-17T05:51:13.776Z,39.75
2017-04-17T05:52:13.762Z,40.79
2017-04-17T05:53:13.747Z,40.13
2017-04-17T05:54:13.732Z,39.94
2017-04-17T05:55:13.720Z,39.84
2017-04-17T05:56:13.700Z,39.56
2017-04-17T05:57:13.684Z,40.06
2017-04-17T05:58:13.817Z,40.72
2017-04-17T05:59:13.657Z,42.14
2017-04-17T06:00:13.644Z,42.9
2017-04-17T06:01:13.626Z,44.32
2017-04-17T06:02:13.611Z,44.79
2017-04-17T06:03:13.599Z,45.64
2017-04-17T06:04:13.271Z,44.79
2017-04-17T06:05:13.567Z,44.98
2017-04-17T06:06:13.236Z,44.51
2017-04-17T06:07:13.223Z,44.03
2017-04-17T06:08:13.524Z,43.37
2017-04-17T06:09:13.512Z,42.9
2017-04-17T06:10:13.179Z,42.8
2017-04-17T06:11:13.479Z,43.75
2017-04-17T06:12:13.465Z,44.32
2017-04-17T06:13:13.450Z,43.94
2017-04-17T06:14:13.434Z,45.07
2017-04-17T06:15:13.418Z,45.64
2017-04-17T06:16:13.406Z,46.5
2017-04-17T06:17:13.388Z,46.02
2017-04-17T06:18:13.377Z,45.36
2017-04-17T06:19:13.360Z,46.88
2017-04-17T06:20:13.347Z,47.32
2017-04-17T06:21:13.330Z,46.97
2017-04-17T06:22:13.315Z,46.78
2017-04-17T06:23:13.306Z,47.72
2017-04-17T06:24:13.287Z,47.23
2017-04-17T06:25:13.271Z,46.69
2017-04-17T06:26:13.257Z,46.75
2017-04-17T06:27:13.243Z,46.09
2017-04-17T06:28:13.227Z,46.28
2017-04-17T06:29:13.214Z,45.62
2017-04-17T06:30:12.883Z,44.96
2017-04-17T06:31:13.180Z,44.2
2017-04-17T06:32:13.170Z,44.48
2017-04-17T06:33:12.839Z,45.15
2017-04-17T06:34:12.825Z,46.28
2017-04-17T06:35:13.128Z,46.09
2017-04-17T06:36:13.110Z,46.37
2017-04-17T06:37:13.095Z,45.34
2017-04-17T06:38:13.081Z,45.43
2017-04-17T06:39:13.065Z,45.43
2017-04-17T06:40:12.734Z,45.62
2017-04-17T06:41:13.127Z,46.19
2017-04-17T06:42:13.025Z,47.13
2017-04-17T06:43:12.691Z,48.84
2017-04-17T06:44:12.991Z,49.31
2017-04-17T06:45:12.975Z,47.8
2017-04-17T06:46:12.959Z,46.28
2017-04-17T06:47:12.945Z,44.96
2017-04-17T06:48:12.615Z,45.05
2017-04-17T06:49:12.601Z,44.86
2017-04-17T06:50:12.584Z,46.19
2017-04-17T06:51:12.887Z,45.9
2017-04-17T06:52:12.872Z,46.37
2017-04-17T06:53:12.544Z,47.32
2017-04-17T06:54:12.844Z,47.8
2017-04-17T06:55:12.826Z,47.61
2017-04-17T06:56:12.812Z,47.61
2017-04-17T06:57:12.798Z,48.55
2017-04-17T06:58:12.788Z,48.36
2017-04-17T06:59:12.792Z,49.41
2017-04-17T07:00:12.753Z,51.39
2017-04-17T07:01:12.738Z,52.25
2017-04-17T07:02:12.412Z,52.62
2017-04-17T07:03:12.708Z,54.42
2017-04-17T07:04:12.693Z,54.52
2017-04-17T07:05:12.684Z,56.13
2017-04-17T07:06:12.350Z,57.07
2017-04-17T07:07:12.707Z,57.45
2017-04-17T07:08:12.633Z,56.88
2017-04-17T07:09:12.620Z,56.41
2017-04-17T07:10:12.604Z,57.54
2017-04-17T07:11:12.275Z,58.3
2017-04-17T07:12:12.259Z,57.54
2017-04-17T07:13:12.560Z,56.22
2017-04-17T07:14:12.545Z,56.41
2017-04-17T07:15:12.528Z,56.32
2017-04-17T07:16:12.665Z,57.26
2017-04-17T07:17:12.498Z,57.54
2017-04-17T07:18:12.484Z,58.21
2017-04-17T07:19:12.468Z,58.21
2017-04-17T07:20:12.458Z,57.83
2017-04-17T07:21:12.438Z,58.78
2017-04-17T07:22:12.426Z,59.91
2017-04-17T07:23:12.406Z,59.72
2017-04-17T07:24:12.435Z,59.91
2017-04-17T07:25:12.380Z,59.53
2017-04-17T07:26:12.362Z,60.19
2017-04-17T07:27:12.348Z,60.1
2017-04-17T07:28:12.333Z,60
2017-04-17T07:29:12.318Z,60.58
2017-04-17T07:30:11.988Z,60.1
2017-04-17T07:31:12.287Z,61.33
2017-04-17T07:32:12.273Z,60.86
2017-04-17T07:33:12.258Z,61.52
2017-04-17T07:34:12.244Z,61.61
2017-04-17T07:35:12.228Z,60.96
2017-04-17T07:36:12.214Z,61.61
2017-04-17T07:37:12.201Z,61.33
2017-04-17T07:38:12.182Z,61.15
2017-04-17T07:39:12.168Z,61.9
2017-04-17T07:40:12.158Z,62.28
2017-04-17T07:41:12.313Z,63.98
2017-04-17T07:42:12.123Z,64.83
2017-04-17T07:43:12.108Z,66.35
2017-04-17T07:44:12.093Z,66.63
2017-04-17T07:45:12.081Z,68.24
2017-04-17T07:46:12.069Z,68.75
2017-04-17T07:47:12.050Z,68.81
2017-04-17T07:48:12.037Z,69
2017-04-17T07:49:11.706Z,68.9
2017-04-17T07:50:12.008Z,68.9
2017-04-17T07:51:11.990Z,68.05
2017-04-17T07:52:11.720Z,67.49
2017-04-17T07:53:11.647Z,68.15
2017-04-17T07:54:11.947Z,67.24
2017-04-17T07:55:11.933Z,66.82
2017-04-17T07:56:11.918Z,67.3
2017-04-17T07:57:11.591Z,67.3
2017-04-17T07:58:11.894Z,67.33
2017-04-17T07:59:11.877Z,68.56
2017-04-17T08:00:11.860Z,69.7
2017-04-17T08:01:11.846Z,69.41
2017-04-17T08:02:11.833Z,69.13
2017-04-17T08:03:11.820Z,69.7
2017-04-17T08:04:11.803Z,70.26
2017-04-17T08:05:11.787Z,71.31
2017-04-17T08:06:11.773Z,71.97
2017-04-17T08:07:11.756Z,73.86
2017-04-17T08:08:11.744Z,73.77
2017-04-17T08:09:11.729Z,74.15
2017-04-17T08:10:11.716Z,75.47
2017-04-17T08:11:11.386Z,76.61
2017-04-17T08:12:11.684Z,76.42
2017-04-17T08:13:11.362Z,77.18
2017-04-17T08:14:11.658Z,77.94
2017-04-17T08:15:11.644Z,78.13
2017-04-17T08:16:11.630Z,78.88
2017-04-17T08:17:11.617Z,79.55
2017-04-17T08:18:11.601Z,80.87
2017-04-17T08:19:11.590Z,82.2
2017-04-17T08:20:11.573Z,82.29
2017-04-17T08:21:11.556Z,83.33
2017-04-17T08:22:11.545Z,82.86
2017-04-17T08:23:11.534Z,81.63
2017-04-17T08:24:11.517Z,82.29
2017-04-17T08:25:11.361Z,81.63
2017-04-17T08:26:11.488Z,81.25
2017-04-17T08:27:11.472Z,81.95
2017-04-17T08:28:11.464Z,81.92
2017-04-17T08:29:11.443Z,82.52
2017-04-17T08:30:11.430Z,83.47
2017-04-17T08:31:11.418Z,82.14
2017-04-17T08:32:11.405Z,82.43
2017-04-17T08:33:11.389Z,82.57
2017-04-17T08:34:11.376Z,82.52
2017-04-17T08:35:11.358Z,81.57
2017-04-17T08:36:11.346Z,81.2
2017-04-17T08:37:11.020Z,79.21
2017-04-17T08:38:11.319Z,77.59
2017-04-17T08:39:11.305Z,77.78
2017-04-17T08:40:11.292Z,78.54
2017-04-17T08:41:11.277Z,80.15
2017-04-17T08:42:11.266Z,78.73
2017-04-17T08:43:10.939Z,81.01
2017-04-17T08:44:11.237Z,81.57
2017-04-17T08:45:11.223Z,81.95
2017-04-17T08:46:11.208Z,80.82
2017-04-17T08:47:11.196Z,82.33
2017-04-17T08:48:11.184Z,80.72
2017-04-17T08:49:10.854Z,78.77
2017-04-17T08:50:11.157Z,78.39
2017-04-17T08:51:11.143Z,78.77
2017-04-17T08:52:11.129Z,80.29
2017-04-17T08:53:10.804Z,81.99
2017-04-17T08:54:11.103Z,82.18
2017-04-17T08:55:11.087Z,83.8
2017-04-17T08:56:11.076Z,83.89
2017-04-17T08:57:11.060Z,83.89
2017-04-17T08:58:11.048Z,84.08
2017-04-17T08:59:11.039Z,81.99
2017-04-17T09:00:11.021Z,79.15
2017-04-17T09:01:11.007Z,78.3
2017-04-17T09:02:10.993Z,78.2
2017-04-17T09:03:10.984Z,84.78
2017-04-17T09:04:10.970Z,90.38
2017-04-17T09:05:10.955Z,90.29
2017-04-17T09:06:10.944Z,88.77
2017-04-17T09:07:10.934Z,87.06
2017-04-17T09:08:10.919Z,87.63
2017-04-17T09:09:10.907Z,89.53
2017-04-17T09:10:10.894Z,88.58
2017-04-17T09:11:10.566Z,88.2
2017-04-17T09:12:10.552Z,93.04
2017-04-17T09:13:10.856Z,90.1
2017-04-17T09:14:10.526Z,88.39
2017-04-17T09:15:10.829Z,88.91
2017-04-17T09:16:11.038Z,89.53
2017-04-17T09:17:10.492Z,92.8
2017-04-17T09:18:10.502Z,93.37
2017-04-17T09:19:10.466Z,92.9
2017-04-17T09:20:10.454Z,91.09
2017-04-17T09:21:10.756Z,90.33
2017-04-17T09:22:10.430Z,96.08
2017-04-17T09:23:10.733Z,99.99
2017-04-17T09:24:10.725Z,99.99
2017-04-17T09:25:10.714Z,99.99
2017-04-17T09:26:10.384Z,99.99
2017-04-17T09:27:10.685Z,99.99
2017-04-17T09:28:10.677Z,99.99
2017-04-17T09:29:10.664Z,99.99
2017-04-17T09:30:10.335Z,99.99
2017-04-17T09:31:10.326Z,99.99
2017-04-17T09:32:10.314Z,99.99
2017-04-17T09:33:10.617Z,99.99
2017-04-17T09:34:10.293Z,99.99
2017-04-17T09:35:10.279Z,99.99
2017-04-17T09:36:10.582Z,99.99
2017-04-17T09:37:10.570Z,99.99
2017-04-17T09:38:10.559Z,99.99
2017-04-17T09:39:10.548Z,99.99
2017-04-17T09:40:10.222Z,99.99
2017-04-17T09:41:10.524Z,99.99
2017-04-17T09:42:10.199Z,99.99
2017-04-17T09:43:10.503Z,99.99
2017-04-17T09:44:10.495Z,99.99
2017-04-17T09:45:10.498Z,99.99
2017-04-17T09:46:10.469Z,99.99
2017-04-17T09:47:10.143Z,99.99
2017-04-17T09:48:10.448Z,99.99
2017-04-17T09:49:10.122Z,99.99
2017-04-17T09:50:10.425Z,99.99
2017-04-17T09:51:10.415Z,99.99
2017-04-17T09:52:10.404Z,99.99
2017-04-17T09:53:10.393Z,99.99
2017-04-17T09:54:10.066Z,99.99
2017-04-17T09:55:10.372Z,99.99
2017-04-17T09:56:10.361Z,99.99
2017-04-17T09:57:10.352Z,99.99
2017-04-17T09:58:10.343Z,99.99
2017-04-17T09:59:10.330Z,99.99
2017-04-17T10:00:10.316Z,99.99
2017-04-17T10:01:10.307Z,99.99
2017-04-17T10:02:09.983Z,99.99
2017-04-17T10:03:10.287Z,99.99
2017-04-17T10:04:10.275Z,99.99
2017-04-17T10:05:10.263Z,99.99
2017-04-17T10:06:09.951Z,99.99
2017-04-17T10:07:10.243Z,99.99
2017-04-17T10:08:10.234Z,99.99
2017-04-17T10:09:10.220Z,99.99
2017-04-17T10:10:10.211Z,99.99
2017-04-17T10:11:10.199Z,99.99
2017-04-17T10:12:10.189Z,99.99
2017-04-17T10:13:10.178Z,99.99
2017-04-17T10:14:09.852Z,99.99
2017-04-17T10:15:10.156Z,99.99
2017-04-17T10:16:10.145Z,99.99
2017-04-17T10:17:10.284Z,99.99
2017-04-17T10:18:10.123Z,99.99
2017-04-17T10:19:10.114Z,99.99
2017-04-17T10:20:10.101Z,99.99
2017-04-17T10:21:10.091Z,99.99
2017-04-17T10:22:10.088Z,99.99
2017-04-17T10:23:10.072Z,99.99
2017-04-17T10:24:10.061Z,99.99
2017-04-17T10:25:09.736Z,99.99
2017-04-17T10:26:09.725Z,99.99
2017-04-17T10:27:10.030Z,99.99
2017-04-17T10:28:10.017Z,99.99
2017-04-17T10:29:10.187Z,99.99
2017-04-17T10:30:10.000Z,99.99
2017-04-17T10:31:09.674Z,99.99
2017-04-17T10:32:09.971Z,99.99
2017-04-17T10:33:09.962Z,99.99
2017-04-17T10:34:09.952Z,99.99
2017-04-17T10:35:09.942Z,99.99
2017-04-17T10:36:09.615Z,99.99
2017-04-17T10:37:09.920Z,99.99
2017-04-17T10:38:09.909Z,99.99
2017-04-17T10:39:09.899Z,99.99
2017-04-17T10:40:09.965Z,99.99
2017-04-17T10:41:09.875Z,99.99
2017-04-17T10:42:09.864Z,99.99
2017-04-17T10:43:09.851Z,99.99
2017-04-17T10:44:09.848Z,99.99
2017-04-17T10:45:09.833Z,99.99
2017-04-17T10:46:09.823Z,99.99
2017-04-17T10:47:09.816Z,99.99
2017-04-17T10:48:09.802Z,99.99
2017-04-17T10:49:09.795Z,99.99
2017-04-17T10:50:09.780Z,99.99
2017-04-17T10:51:09.770Z,99.99
2017-04-17T10:52:09.758Z,99.99
2017-04-17T10:53:09.748Z,99.99
2017-04-17T10:54:09.424Z,99.99
2017-04-17T10:55:09.728Z,99.99
2017-04-17T10:56:09.714Z,99.99
2017-04-17T10:57:09.714Z,99.99
2017-04-17T10:58:09.379Z,99.99
2017-04-17T10:59:09.684Z,99.99
2017-04-17T11:00:09.672Z,99.99
2017-04-17T11:01:09.662Z,99.99
2017-04-17T11:02:09.652Z,99.99
2017-04-17T11:03:09.643Z,99.99
2017-04-17T11:04:09.633Z,99.99
2017-04-17T11:05:09.620Z,99.99
2017-04-17T11:06:09.610Z,99.99
2017-04-17T11:07:09.600Z,99.99
2017-04-17T11:08:09.589Z,99.99
2017-04-17T11:09:09.576Z,99.99
2017-04-17T11:10:09.567Z,99.99
2017-04-17T11:11:09.594Z,99.99
2017-04-17T11:12:09.550Z,99.99
2017-04-17T11:13:09.535Z,99.99
2017-04-17T11:14:09.706Z,99.99
2017-04-17T11:15:09.515Z,99.99
2017-04-17T11:16:09.503Z,99.99
2017-04-17T11:17:09.496Z,99.99
2017-04-17T11:18:09.482Z,99.99
2017-04-17T11:19:09.470Z,99.99
2017-04-17T11:20:09.146Z,99.99
2017-04-17T11:21:09.449Z,99.99
2017-04-17T11:22:09.123Z,99.99
2017-04-17T11:23:09.426Z,99.99
2017-04-17T11:24:09.102Z,99.99
2017-04-17T11:25:09.409Z,99.99
2017-04-17T11:26:09.144Z,99.99
2017-04-17T11:27:09.069Z,99.99
2017-04-17T11:28:09.373Z,99.99
2017-04-17T11:29:09.363Z,99.99
2017-04-17T11:30:09.044Z,99.99
2017-04-17T11:31:09.338Z,99.99
2017-04-17T11:32:09.327Z,99.99
2017-04-17T11:33:09.003Z,99.99
2017-04-17T11:34:09.310Z,99.99
2017-04-17T11:35:09.295Z,99.99
2017-04-17T11:36:09.287Z,99.99
2017-04-17T11:37:09.273Z,99.99
2017-04-17T11:38:09.270Z,99.99
2017-04-17T11:39:09.253Z,99.99
2017-04-17T11:40:09.242Z,99.99
2017-04-17T11:41:09.231Z,99.99
2017-04-17T11:42:09.219Z,99.99
2017-04-17T11:43:09.209Z,99.99
2017-04-17T11:44:09.198Z,99.99
2017-04-17T11:45:09.187Z,99.99
2017-04-17T11:46:08.863Z,99.99
2017-04-17T11:47:08.852Z,99.99
2017-04-17T11:48:09.158Z,99.99
2017-04-17T11:49:09.143Z,99.99
2017-04-17T11:50:09.133Z,99.99
2017-04-17T11:51:09.124Z,99.99
2017-04-17T11:52:08.800Z,99.99
2017-04-17T11:53:09.100Z,99.99
2017-04-17T11:54:09.093Z,99.99
2017-04-17T11:55:08.766Z,99.99
2017-04-17T11:56:09.087Z,99.99
2017-04-17T11:57:09.060Z,99.99
2017-04-17T11:58:09.051Z,99.99
2017-04-17T11:59:09.044Z,99.99
2017-04-17T12:00:09.029Z,99.99
2017-04-17T12:01:09.017Z,99.99
2017-04-17T12:02:09.007Z,99.99
2017-04-17T12:03:08.683Z,99.99
2017-04-17T12:04:09.008Z,99.99
2017-04-17T12:05:08.980Z,99.99
2017-04-17T12:06:08.652Z,99.99
2017-04-17T12:07:08.957Z,99.99
2017-04-17T12:08:08.946Z,99.99
2017-04-17T12:09:08.936Z,99.99
2017-04-17T12:10:08.924Z,99.99
2017-04-17T12:11:08.911Z,99.99
2017-04-17T12:12:08.590Z,99.99
2017-04-17T12:13:08.891Z,99.99
2017-04-17T12:14:08.882Z,99.99
2017-04-17T12:15:08.878Z,99.99
2017-04-17T12:16:08.862Z,99.99
2017-04-17T12:17:08.851Z,99.99
2017-04-17T12:18:08.529Z,99.99
2017-04-17T12:19:08.515Z,99.99
2017-04-17T12:20:08.502Z,99.99
2017-04-17T12:21:08.805Z,99.99
2017-04-17T12:22:08.796Z,99.99
2017-04-17T12:23:08.784Z,99.99
2017-04-17T12:24:08.462Z,99.99
2017-04-17T12:25:08.778Z,99.99
2017-04-17T12:26:08.754Z,99.99
2017-04-17T12:27:08.743Z,99.99
2017-04-17T12:28:08.737Z,99.99
2017-04-17T12:29:08.798Z,99.99
2017-04-17T12:30:08.715Z,99.99
2017-04-17T12:31:08.709Z,99.99
2017-04-17T12:32:08.694Z,99.99
2017-04-17T12:33:08.684Z,99.99
2017-04-17T12:34:08.358Z,99.99
2017-04-17T12:35:08.664Z,99.99
2017-04-17T12:36:08.656Z,99.99
2017-04-17T12:37:08.645Z,99.99
2017-04-17T12:38:08.704Z,99.99
2017-04-17T12:39:08.630Z,90.99
2017-04-17T12:40:08.613Z,91.28
2017-04-17T12:41:08.607Z,87.95
2017-04-17T12:42:08.599Z,92.51
2017-04-17T12:43:08.585Z,87.76
2017-04-17T12:44:08.263Z,90.89
2017-04-17T12:45:08.568Z,96.6
2017-04-17T12:46:08.557Z,96.98
2017-04-17T12:47:08.548Z,95.89
2017-04-17T12:48:08.537Z,94.74
2017-04-17T12:49:08.532Z,86.94
2017-04-17T12:50:08.521Z,83.52
2017-04-17T12:51:08.512Z,83.81
2017-04-17T12:52:08.504Z,85.24
2017-04-17T12:53:08.496Z,90.28
2017-04-17T12:54:08.581Z,90.94